Time;durP1;ratioP1;P1;durP2;ratioP2;P2;SDS_P1;SDS_P2;PMS_P1;PMS_P2;Temp;Humidity;BMP_temperature;BMP_pressure;BME280_temperature;BME280_humidity;BME280_pressure;Samples;Min_cycle;Max_cycle;Signal;HPM_P1;HPM_P2
2022/05/13 00:02:10;;;;;;;;;;;12.70;99.90;;;;;;4898989;29;20289;-71
2022/05/13 00:04:36;;;;;;;;;;;12.70;99.90;;;;;;4914210;29;19923;-71
2022/05/13 00:07:02;;;;;;;;;;;12.70;99.90;;;;;;4901474;29;19965;-71
2022/05/13 00:12:12;;;;;;;;;;;12.70;99.90;;;;;;4900710;29;19919;-71
2022/05/13 00:14:38;;;;;;;;;;;12.70;99.90;;;;;;4900628;29;19923;-71
2022/05/13 00:17:03;;;;;;;;;;;12.70;99.90;;;;;;4900682;29;19927;-71
2022/05/13 00:19:30;;;;;;;;;;;12.60;99.90;;;;;;4917915;29;19923;-71
2022/05/13 00:21:55;;;;;;;;;;;12.60;99.90;;;;;;4918726;29;20001;-71
2022/05/13 00:24:24;;;;;;;;;;;12.60;99.90;;;;;;4917251;29;19937;-71
2022/05/13 00:26:51;;;;;;;;;;;12.60;99.90;;;;;;4902010;29;19923;-72
2022/05/13 00:29:17;;;;;;;;;;;12.60;99.90;;;;;;4901348;29;20334;-71
2022/05/13 00:31:45;;;;;;;;;;;12.60;99.90;;;;;;4899568;29;20701;-72
2022/05/13 00:34:11;;;;;;;;;;;12.60;99.90;;;;;;4918723;29;19934;-71
2022/05/13 00:36:36;;;;;;;;;;;12.60;99.90;;;;;;4901299;29;19923;-71
2022/05/13 00:39:03;;;;;;;;;;;12.60;99.90;;;;;;4901157;29;20390;-71
2022/05/13 00:49:17;;;;;;;;;;;12.60;99.90;;;;;;5419042;23;19922;-71
2022/05/13 00:51:45;;;;;;;;;;;12.70;99.90;;;;;;4913892;29;20370;-71
2022/05/13 00:54:12;;;;;;;;;;;12.70;99.90;;;;;;4936905;29;19950;-71
2022/05/13 00:56:42;;;;;;;;;;;12.70;99.90;;;;;;4936738;29;20370;-72
2022/05/13 00:59:12;;;;;;;;;;;12.70;99.90;;;;;;4918510;29;19930;-71
2022/05/13 01:01:40;;;;;;;;;;;12.60;99.90;;;;;;4936441;29;19923;-71
2022/05/13 01:04:08;;;;;;;;;;;12.60;99.90;;;;;;4919532;29;19923;-71
2022/05/13 01:06:34;;;;;;;;;;;12.60;99.90;;;;;;4919081;29;19926;-71
2022/05/13 01:09:03;;;;;;;;;;;12.60;99.90;;;;;;4918957;29;19923;-71
2022/05/13 01:11:30;;;;;;;;;;;12.60;99.90;;;;;;4919630;29;19922;-71
2022/05/13 01:14:00;;;;;;;;;;;12.70;99.90;;;;;;4936448;29;20371;-71
2022/05/13 01:16:26;;;;;;;;;;;12.60;99.90;;;;;;4936649;29;19966;-71
2022/05/13 01:18:52;;;;;;;;;;;12.60;99.90;;;;;;4918689;29;19926;-72
2022/05/13 01:21:29;;;;;;;;;;;12.60;99.90;;;;;;4935873;29;19923;-72
2022/05/13 01:23:55;;;;;;;;;;;12.60;99.90;;;;;;4919404;29;19923;-72
2022/05/13 01:26:29;;;;;;;;;;;12.50;99.90;;;;;;4918963;29;19926;-72
2022/05/13 01:28:55;;;;;;;;;;;12.50;99.90;;;;;;4919149;29;19923;-71
2022/05/13 01:31:23;;;;;;;;;;;12.50;99.90;;;;;;4919340;29;19929;-72
2022/05/13 01:33:48;;;;;;;;;;;12.50;99.90;;;;;;4918951;29;19945;-72
2022/05/13 01:36:17;;;;;;;;;;;12.50;99.90;;;;;;4920627;29;20017;-72
2022/05/13 01:38:43;;;;;;;;;;;12.50;99.90;;;;;;4937968;29;19981;-72
2022/05/13 01:41:09;;;;;;;;;;;12.40;99.90;;;;;;4920113;29;19989;-73
2022/05/13 01:43:35;;;;;;;;;;;13.10;99.90;;;;;;4936838;29;19930;-72
2022/05/13 01:46:01;;;;;;;;;;;12.40;99.90;;;;;;4937034;29;19922;-72
2022/05/13 01:48:27;;;;;;;;;;;12.40;99.90;;;;;;4919674;29;19922;-71
2022/05/13 01:50:53;;;;;;;;;;;12.40;99.90;;;;;;4936314;29;20122;-72
2022/05/13 01:53:19;;;;;;;;;;;12.40;99.90;;;;;;4936933;29;19934;-72
2022/05/13 01:55:44;;;;;;;;;;;12.30;99.90;;;;;;4936650;29;20418;-72
2022/05/13 01:58:11;;;;;;;;;;;12.30;99.90;;;;;;4923472;29;19929;-71
2022/05/13 02:00:36;;;;;;;;;;;12.30;99.90;;;;;;4940656;29;19977;-72
2022/05/13 02:05:46;;;;;;;;;;;12.30;99.90;;;;;;4922376;29;19926;-72
2022/05/13 02:08:11;;;;;;;;;;;12.20;99.90;;;;;;4938610;29;19923;-71
2022/05/13 02:10:40;;;;;;;;;;;12.30;99.90;;;;;;4940166;29;19927;-71
2022/05/13 02:13:06;;;;;;;;;;;12.40;99.90;;;;;;4940167;29;20029;-71
2022/05/13 02:15:31;;;;;;;;;;;12.30;99.90;;;;;;4922009;29;19922;-72
2022/05/13 02:17:57;;;;;;;;;;;12.30;99.90;;;;;;4939993;29;20386;-72
2022/05/13 02:20:22;;;;;;;;;;;12.20;99.90;;;;;;4921567;29;19991;-72
2022/05/13 02:22:48;;;;;;;;;;;12.20;99.90;;;;;;4921286;29;20073;-72
2022/05/13 02:25:13;;;;;;;;;;;12.20;99.90;;;;;;4922202;29;20074;-71
2022/05/13 02:27:39;;;;;;;;;;;12.20;99.90;;;;;;4938920;29;20271;-72
2022/05/13 02:30:08;;;;;;;;;;;12.20;99.90;;;;;;4920900;29;19926;-72
2022/05/13 02:32:33;;;;;;;;;;;12.20;99.90;;;;;;4923136;29;20295;-71
2022/05/13 02:34:59;;;;;;;;;;;12.20;99.90;;;;;;4940835;29;19929;-72
2022/05/13 02:37:24;;;;;;;;;;;12.20;99.90;;;;;;4922672;29;19926;-72
2022/05/13 02:39:50;;;;;;;;;;;12.20;99.90;;;;;;4924008;29;19922;-72
2022/05/13 02:42:18;;;;;;;;;;;12.40;99.90;;;;;;4922898;29;19922;-73
2022/05/13 02:44:44;;;;;;;;;;;12.20;99.90;;;;;;4921472;29;19984;-72
2022/05/13 02:47:09;;;;;;;;;;;12.20;99.90;;;;;;4922277;29;19923;-72
2022/05/13 02:49:35;;;;;;;;;;;12.30;99.90;;;;;;4922968;29;19923;-72
2022/05/13 02:52:01;;;;;;;;;;;12.30;99.90;;;;;;4922571;29;19923;-71
2022/05/13 02:54:26;;;;;;;;;;;12.40;99.90;;;;;;4922630;29;19979;-71
2022/05/13 02:56:52;;;;;;;;;;;12.30;99.90;;;;;;4940088;29;19923;-71
2022/05/13 02:59:18;;;;;;;;;;;12.40;99.90;;;;;;4921931;29;19946;-71
2022/05/13 03:01:43;;;;;;;;;;;12.40;99.90;;;;;;4938897;29;20009;-71
2022/05/13 03:04:09;;;;;;;;;;;12.40;99.90;;;;;;4938110;29;19931;-71
2022/05/13 03:06:35;;;;;;;;;;;12.40;99.90;;;;;;4922452;29;19929;-71
2022/05/13 03:09:01;;;;;;;;;;;12.40;99.90;;;;;;4921609;29;19974;-71
2022/05/13 03:11:30;;;;;;;;;;;12.50;99.90;;;;;;4922146;29;20005;-71
2022/05/13 03:13:55;;;;;;;;;;;12.40;99.90;;;;;;4922496;29;19977;-72
2022/05/13 03:16:22;;;;;;;;;;;12.40;99.90;;;;;;4938863;29;19930;-72
2022/05/13 03:18:56;;;;;;;;;;;12.40;99.90;;;;;;4938247;29;19991;-72
2022/05/13 03:21:22;;;;;;;;;;;12.50;99.90;;;;;;4922024;29;19914;-71
2022/05/13 03:23:48;;;;;;;;;;;12.40;99.90;;;;;;4938939;29;20021;-71
2022/05/13 03:26:15;;;;;;;;;;;12.40;99.90;;;;;;4920850;29;19982;-71
2022/05/13 03:28:40;;;;;;;;;;;12.50;99.90;;;;;;4937778;29;19929;-72
2022/05/13 03:31:06;;;;;;;;;;;12.50;99.90;;;;;;4937460;29;19926;-71
2022/05/13 03:33:32;;;;;;;;;;;12.50;99.90;;;;;;4936664;29;20359;-71
2022/05/13 03:35:58;;;;;;;;;;;12.60;99.90;;;;;;4920936;29;19923;-72
2022/05/13 03:43:34;;;;;;;;;;;12.50;99.90;;;;;;5231951;23;19923;-71
2022/05/13 03:45:59;;;;;;;;;;;12.50;99.90;;;;;;4937553;29;19922;-71
2022/05/13 03:48:25;;;;;;;;;;;12.50;99.90;;;;;;4945027;29;19922;-71
2022/05/13 03:50:50;;;;;;;;;;;12.50;99.90;;;;;;4940334;29;20013;-73
2022/05/13 03:53:16;;;;;;;;;;;12.50;99.90;;;;;;4939855;29;19923;-71
2022/05/13 03:55:42;;;;;;;;;;;12.60;99.90;;;;;;4940241;29;20366;-71
2022/05/13 03:58:07;;;;;;;;;;;12.60;99.90;;;;;;4940177;29;19941;-71
2022/05/13 04:00:36;;;;;;;;;;;12.90;99.90;;;;;;4957182;29;19922;-72
2022/05/13 04:03:01;;;;;;;;;;;12.60;99.90;;;;;;4957131;29;20386;-71
2022/05/13 04:10:55;;;;;;;;;;;12.60;99.90;;;;;;4958196;29;20021;-72
2022/05/13 04:16:26;;;;;;;;;;;12.70;99.90;;;;;;4876822;29;20305;-71
2022/05/13 04:18:54;;;;;;;;;;;12.60;99.90;;;;;;4883990;29;20013;-71
2022/05/13 04:21:21;;;;;;;;;;;12.60;99.90;;;;;;4896072;29;20005;-72
2022/05/13 04:23:48;;;;;;;;;;;12.60;99.90;;;;;;4917744;29;19923;-72
2022/05/13 04:26:14;;;;;;;;;;;12.60;99.90;;;;;;4918870;29;19927;-71
2022/05/13 04:28:44;;;;;;;;;;;12.60;99.90;;;;;;4919091;29;19923;-71
2022/05/13 04:31:10;;;;;;;;;;;12.60;99.90;;;;;;5112974;23;19925;-73
2022/05/13 04:33:35;;;;;;;;;;;12.60;99.90;;;;;;4917476;29;20021;-72
2022/05/13 04:36:01;;;;;;;;;;;12.60;99.90;;;;;;4903713;29;19923;-72
2022/05/13 04:38:26;;;;;;;;;;;12.60;99.90;;;;;;4920625;29;19986;-72
2022/05/13 04:40:52;;;;;;;;;;;12.60;99.90;;;;;;4942930;29;19929;-72
2022/05/13 04:56:13;;;;;;;;;;;12.60;99.90;;;;;;5529198;23;19927;-72
2022/05/13 04:58:39;;;;;;;;;;;12.70;99.90;;;;;;4893792;29;19983;-72
2022/05/13 05:01:05;;;;;;;;;;;12.70;99.90;;;;;;4901497;29;19927;-72
2022/05/13 05:03:32;;;;;;;;;;;12.70;99.90;;;;;;5257925;23;20387;-69
2022/05/13 05:05:58;;;;;;;;;;;12.80;99.90;;;;;;4933013;29;20399;-72
2022/05/13 05:08:24;;;;;;;;;;;12.80;99.90;;;;;;4933195;29;19909;-70
2022/05/13 05:10:49;;;;;;;;;;;12.80;99.90;;;;;;4919869;29;19923;-70
2022/05/13 05:13:22;;;;;;;;;;;12.80;99.90;;;;;;4910839;29;19946;-71
2022/05/13 05:15:48;;;;;;;;;;;12.80;99.90;;;;;;4920842;29;19923;-72
2022/05/13 05:18:14;;;;;;;;;;;12.80;99.90;;;;;;4936923;29;20066;-72
2022/05/13 05:20:43;;;;;;;;;;;12.80;99.90;;;;;;4938200;29;19922;-69
2022/05/13 05:30:55;;;;;;;;;;;12.90;99.90;;;;;;5931503;23;19922;-72
2022/05/13 05:33:21;;;;;;;;;;;12.90;99.90;;;;;;4927997;29;20397;-71
2022/05/13 05:35:47;;;;;;;;;;;13.10;99.90;;;;;;4925276;29;19927;-71
2022/05/13 05:38:31;;;;;;;;;;;12.90;99.90;;;;;;4940183;29;19951;-72
2022/05/13 05:40:58;;;;;;;;;;;12.90;99.90;;;;;;4920943;29;19923;-72
2022/05/13 05:43:23;;;;;;;;;;;13.00;99.90;;;;;;4922759;29;19923;-71
2022/05/13 05:45:49;;;;;;;;;;;13.00;99.90;;;;;;4940979;29;19978;-71
2022/05/13 05:48:21;;;;;;;;;;;13.00;99.90;;;;;;4949222;29;19922;-72
2022/05/13 05:50:48;;;;;;;;;;;13.00;99.90;;;;;;4961136;29;19926;-73
2022/05/13 05:53:13;;;;;;;;;;;13.10;99.90;;;;;;4941157;29;19990;-73
2022/05/13 05:58:23;;;;;;;;;;;13.10;99.90;;;;;;4959034;29;19922;-71
2022/05/13 06:00:49;;;;;;;;;;;13.20;99.90;;;;;;4933686;23;19930;-73
2022/05/13 06:03:15;;;;;;;;;;;13.30;99.90;;;;;;4920789;29;20299;-71
2022/05/13 06:05:41;;;;;;;;;;;13.20;99.90;;;;;;4909512;29;19930;-71
2022/05/13 06:08:08;;;;;;;;;;;13.20;99.90;;;;;;4905514;29;19923;-71
2022/05/13 06:10:35;;;;;;;;;;;13.20;99.90;;;;;;4924188;29;19922;-71
2022/05/13 06:13:02;;;;;;;;;;;13.20;99.90;;;;;;4927239;29;20410;-71
2022/05/13 06:15:28;;;;;;;;;;;13.30;99.90;;;;;;4906917;29;19926;-69
2022/05/13 06:17:54;;;;;;;;;;;13.30;99.90;;;;;;4903716;29;20010;-69
2022/05/13 06:20:21;;;;;;;;;;;13.30;99.90;;;;;;4920289;29;19930;-69
2022/05/13 06:22:47;;;;;;;;;;;13.40;99.90;;;;;;4913549;29;20391;-71
2022/05/13 06:25:13;;;;;;;;;;;13.30;99.90;;;;;;4939129;29;19926;-66
2022/05/13 06:27:39;;;;;;;;;;;13.40;99.90;;;;;;4938737;29;19970;-69
2022/05/13 06:30:06;;;;;;;;;;;14.40;99.90;;;;;;4937693;29;20276;-68
2022/05/13 06:32:32;;;;;;;;;;;13.60;99.90;;;;;;4938927;29;19922;-69
2022/05/13 06:35:00;;;;;;;;;;;13.60;99.90;;;;;;4920620;29;20303;-66
2022/05/13 06:37:26;;;;;;;;;;;13.60;99.90;;;;;;4936716;29;19930;-66
2022/05/13 06:39:54;;;;;;;;;;;13.70;99.90;;;;;;4920539;29;19930;-67
2022/05/13 06:42:20;;;;;;;;;;;13.70;99.90;;;;;;4929293;29;19927;-66
2022/05/13 06:44:45;;;;;;;;;;;13.70;99.90;;;;;;4902473;29;19938;-73
2022/05/13 06:47:11;;;;;;;;;;;13.80;99.90;;;;;;4901429;29;19978;-70
2022/05/13 06:49:36;;;;;;;;;;;13.90;99.90;;;;;;4909842;29;20355;-71
2022/05/13 06:52:03;;;;;;;;;;;14.00;99.90;;;;;;4902802;29;20371;-71
2022/05/13 06:54:29;;;;;;;;;;;14.20;99.90;;;;;;4901758;29;19928;-71
2022/05/13 06:56:54;;;;;;;;;;;14.20;99.90;;;;;;4902156;29;19934;-71
2022/05/13 06:59:20;;;;;;;;;;;14.30;99.90;;;;;;4902044;29;19923;-69
2022/05/13 07:01:46;;;;;;;;;;;14.60;99.90;;;;;;4900570;29;19926;-69
2022/05/13 07:04:11;;;;;;;;;;;14.30;99.90;;;;;;4904355;29;19977;-70
2022/05/13 07:06:37;;;;;;;;;;;14.50;99.90;;;;;;4920096;29;20395;-69
2022/05/13 07:09:02;;;;;;;;;;;15.30;99.90;;;;;;4920409;29;19929;-69
2022/05/13 07:11:34;;;;;;;;;;;14.40;99.90;;;;;;4937157;29;19923;-67
2022/05/13 07:14:02;;;;;;;;;;;14.40;99.90;;;;;;4936134;29;19919;-66
2022/05/13 07:16:28;;;;;;;;;;;14.40;99.90;;;;;;4919703;29;19923;-68
2022/05/13 07:18:54;;;;;;;;;;;14.50;99.90;;;;;;4920539;29;19965;-68
2022/05/13 07:21:20;;;;;;;;;;;14.80;99.90;;;;;;4938705;29;19930;-67
2022/05/13 07:23:45;;;;;;;;;;;14.90;99.90;;;;;;4938172;29;19927;-69
2022/05/13 07:26:11;;;;;;;;;;;15.00;99.90;;;;;;4919912;29;19929;-70
2022/05/13 07:28:41;;;;;;;;;;;15.50;99.90;;;;;;4920554;29;20375;-69
2022/05/13 07:31:09;;;;;;;;;;;16.20;99.90;;;;;;4920780;29;20002;-69
2022/05/13 07:33:35;;;;;;;;;;;16.10;99.90;;;;;;4919178;29;20081;-73
2022/05/13 07:36:02;;;;;;;;;;;16.40;99.90;;;;;;4918604;29;20002;-70
2022/05/13 07:38:29;;;;;;;;;;;16.10;99.90;;;;;;4937053;29;19950;-71
2022/05/13 07:43:39;;;;;;;;;;;16.10;99.90;;;;;;4919412;29;19922;-71
2022/05/13 07:46:06;;;;;;;;;;;16.90;99.90;;;;;;4918213;29;19926;-72
2022/05/13 07:48:32;;;;;;;;;;;17.40;99.90;;;;;;4937163;29;20293;-71
2022/05/13 07:50:57;;;;;;;;;;;17.60;99.90;;;;;;4937707;29;20375;-73
2022/05/13 07:53:23;;;;;;;;;;;17.60;99.90;;;;;;4919694;29;19926;-71
2022/05/13 07:55:48;;;;;;;;;;;17.70;99.90;;;;;;4937215;29;19923;-70
2022/05/13 07:58:16;;;;;;;;;;;18.00;99.90;;;;;;4919912;29;20398;-70
2022/05/13 08:00:43;;;;;;;;;;;18.40;99.90;;;;;;4919563;29;20434;-70
2022/05/13 08:03:11;;;;;;;;;;;18.20;99.90;;;;;;4936780;29;19922;-71
2022/05/13 08:05:50;;;;;;;;;;;18.10;99.90;;;;;;4937747;29;19927;-70
2022/05/13 08:08:17;;;;;;;;;;;18.00;99.90;;;;;;4936649;29;19990;-70
2022/05/13 08:10:44;;;;;;;;;;;18.10;99.90;;;;;;4937513;29;19922;-70
2022/05/13 08:13:11;;;;;;;;;;;18.20;99.90;;;;;;4936234;29;19922;-70
2022/05/13 08:15:36;;;;;;;;;;;18.20;99.90;;;;;;4936201;29;19969;-69
2022/05/13 08:18:02;;;;;;;;;;;18.50;99.90;;;;;;4936619;29;20367;-70
2022/05/13 08:20:27;;;;;;;;;;;18.60;99.90;;;;;;4937806;29;20033;-70
2022/05/13 08:22:54;;;;;;;;;;;18.90;99.90;;;;;;4919961;29;19934;-70
2022/05/13 08:25:19;;;;;;;;;;;19.40;99.00;;;;;;4937710;29;19934;-70
2022/05/13 08:27:45;;;;;;;;;;;20.20;99.10;;;;;;4905410;29;19923;-70
2022/05/13 08:30:11;;;;;;;;;;;20.60;97.80;;;;;;4919861;29;19985;-70
2022/05/13 08:32:40;;;;;;;;;;;20.90;97.20;;;;;;4919971;29;19923;-69
2022/05/13 08:35:07;;;;;;;;;;;20.90;97.30;;;;;;4937079;29;19919;-70
2022/05/13 08:37:38;;;;;;;;;;;20.70;96.90;;;;;;4938938;29;19926;-70
2022/05/13 08:40:04;;;;;;;;;;;20.50;97.10;;;;;;4937724;29;19927;-70
2022/05/13 08:42:36;;;;;;;;;;;20.90;96.80;;;;;;4937712;29;20025;-70
2022/05/13 08:45:03;;;;;;;;;;;21.20;96.40;;;;;;4920488;29;19926;-70
2022/05/13 08:47:34;;;;;;;;;;;21.00;95.90;;;;;;4920494;29;19922;-69
2022/05/13 08:50:03;;;;;;;;;;;20.60;96.30;;;;;;4925889;29;19978;-70
2022/05/13 08:55:42;;;;;;;;;;;20.40;96.90;;;;;;4936546;29;19922;-70
2022/05/13 08:58:14;;;;;;;;;;;20.30;96.60;;;;;;4919535;29;20009;-70
2022/05/13 09:00:44;;;;;;;;;;;19.90;96.60;;;;;;4937061;29;19926;-70
2022/05/13 09:03:29;;;;;;;;;;;19.80;97.30;;;;;;4919564;29;20146;-70
2022/05/13 09:05:59;;;;;;;;;;;19.90;97.30;;;;;;4938426;29;19922;-70
2022/05/13 09:08:24;;;;;;;;;;;20.00;97.40;;;;;;4941201;29;19958;-70
2022/05/13 09:11:07;;;;;;;;;;;20.10;97.20;;;;;;4940140;29;20363;-71
2022/05/13 09:13:41;;;;;;;;;;;20.10;97.40;;;;;;4940461;29;20035;-70
2022/05/13 09:16:08;;;;;;;;;;;19.70;97.30;;;;;;4940900;29;19923;-71
2022/05/13 09:18:33;;;;;;;;;;;19.90;98.00;;;;;;4939991;29;19922;-70
2022/05/13 09:21:03;;;;;;;;;;;19.80;98.30;;;;;;4939403;29;19946;-70
2022/05/13 09:23:29;;;;;;;;;;;19.60;97.80;;;;;;4938699;29;19922;-70
2022/05/13 09:25:58;;;;;;;;;;;19.60;98.60;;;;;;4922049;29;19934;-70
2022/05/13 09:28:25;;;;;;;;;;;20.00;98.00;;;;;;4922893;29;19922;-70
2022/05/13 09:30:55;;;;;;;;;;;20.40;97.50;;;;;;4940175;29;20433;-70
2022/05/13 09:33:25;;;;;;;;;;;21.00;97.40;;;;;;4905563;29;19925;-70
2022/05/13 09:35:52;;;;;;;;;;;20.90;96.30;;;;;;4940549;29;19929;-70
2022/05/13 09:38:20;;;;;;;;;;;21.30;96.10;;;;;;4921803;29;19919;-70
2022/05/13 09:48:19;;;;;;;;;;;20.50;95.80;;;;;;4919264;28;19923;-71
2022/05/13 09:50:55;;;;;;;;;;;20.10;95.90;;;;;;4921446;29;19923;-70
2022/05/13 09:53:21;;;;;;;;;;;20.10;96.40;;;;;;4903861;29;19923;-70
2022/05/13 09:55:47;;;;;;;;;;;20.20;96.50;;;;;;4915794;29;19950;-70
2022/05/13 09:58:18;;;;;;;;;;;20.20;95.90;;;;;;4923448;29;19922;-70
2022/05/13 10:00:45;;;;;;;;;;;20.50;97.20;;;;;;4922837;29;19962;-70
2022/05/13 10:03:36;;;;;;;;;;;20.80;95.60;;;;;;4938056;29;19926;-70
2022/05/13 10:06:16;;;;;;;;;;;21.00;95.50;;;;;;4940027;29;20065;-70
2022/05/13 10:14:36;;;;;;;;;;;21.50;95.20;;;;;;4904127;29;19958;-70
2022/05/13 10:17:07;;;;;;;;;;;21.60;95.00;;;;;;4920975;29;19923;-71
2022/05/13 10:19:36;;;;;;;;;;;21.60;95.00;;;;;;4921011;29;20391;-70
2022/05/13 10:22:07;;;;;;;;;;;21.10;94.80;;;;;;4920138;29;20441;-70
2022/05/13 10:24:51;;;;;;;;;;;21.40;95.30;;;;;;4903730;29;20010;-71
2022/05/13 10:27:35;;;;;;;;;;;21.10;94.90;;;;;;4921342;29;19965;-71
2022/05/13 10:30:05;;;;;;;;;;;21.20;94.90;;;;;;4922901;29;19929;-70
2022/05/13 10:32:39;;;;;;;;;;;21.10;94.90;;;;;;4939626;29;19923;-71
2022/05/13 10:35:07;;;;;;;;;;;21.00;96.00;;;;;;4921717;29;20375;-70
2022/05/13 10:37:51;;;;;;;;;;;20.90;95.40;;;;;;4939329;29;20010;-70
2022/05/13 10:40:20;;;;;;;;;;;20.90;95.20;;;;;;4938785;29;19933;-70
2022/05/13 10:43:06;;;;;;;;;;;20.30;96.40;;;;;;4921079;29;19933;-70
2022/05/13 10:45:33;;;;;;;;;;;20.30;96.20;;;;;;4920216;29;19980;-70
2022/05/13 10:48:11;;;;;;;;;;;20.00;96.10;;;;;;4919355;29;19951;-71
2022/05/13 10:50:36;;;;;;;;;;;20.10;96.00;;;;;;4938298;29;19923;-71
2022/05/13 10:53:02;;;;;;;;;;;20.40;95.80;;;;;;4939151;29;19977;-70
2022/05/13 10:55:39;;;;;;;;;;;20.90;95.70;;;;;;4940067;29;20386;-71
2022/05/13 11:14:01;;;;;;;;;;;20.10;96.40;;;;;;4914671;27;19992;-70
2022/05/13 11:16:39;;;;;;;;;;;20.40;95.80;;;;;;4902481;29;19923;-70
2022/05/13 11:19:09;;;;;;;;;;;20.10;95.70;;;;;;4919669;29;19908;-70
2022/05/13 11:21:44;;;;;;;;;;;19.30;96.50;;;;;;4902876;29;19923;-70
2022/05/13 11:27:09;;;;;;;;;;;18.50;98.30;;;;;;4902523;29;19926;-70
2022/05/13 11:29:50;;;;;;;;;;;17.90;99.10;;;;;;4889593;29;20339;-69
2022/05/13 11:32:31;;;;;;;;;;;17.90;99.70;;;;;;4900128;29;19930;-70
2022/05/13 11:34:58;;;;;;;;;;;18.30;99.30;;;;;;4901017;29;20379;-70
2022/05/13 11:37:24;;;;;;;;;;;18.50;99.50;;;;;;4901101;29;19971;-70
2022/05/13 11:40:05;;;;;;;;;;;18.60;99.50;;;;;;4899698;29;19967;-70
2022/05/13 11:42:30;;;;;;;;;;;18.60;98.10;;;;;;4900314;29;19923;-70
2022/05/13 11:45:14;;;;;;;;;;;18.30;98.20;;;;;;4901084;29;19966;-71
2022/05/13 11:47:42;;;;;;;;;;;18.20;98.40;;;;;;4900130;29;19930;-71
2022/05/13 11:50:08;;;;;;;;;;;18.20;99.20;;;;;;4900269;29;19923;-71
2022/05/13 11:52:40;;;;;;;;;;;18.40;99.90;;;;;;4898956;29;20026;-70
2022/05/13 11:55:12;;;;;;;;;;;18.90;99.20;;;;;;4900945;29;19978;-70
2022/05/13 11:57:46;;;;;;;;;;;18.90;99.10;;;;;;4900378;29;20280;-70
2022/05/13 12:00:23;;;;;;;;;;;18.90;98.70;;;;;;4899958;29;19996;-70
2022/05/13 12:02:50;;;;;;;;;;;18.70;97.70;;;;;;4899879;29;19927;-70
2022/05/13 12:05:16;;;;;;;;;;;18.40;98.30;;;;;;4897025;29;19930;-70
2022/05/13 12:07:53;;;;;;;;;;;18.10;97.90;;;;;;4918266;29;19923;-70
2022/05/13 12:10:40;;;;;;;;;;;17.90;99.20;;;;;;4918619;29;19928;-70
2022/05/13 12:13:14;;;;;;;;;;;17.80;98.80;;;;;;4909011;29;19923;-70
2022/05/13 12:15:46;;;;;;;;;;;17.50;98.80;;;;;;4919311;29;20352;-70
2022/05/13 12:18:20;;;;;;;;;;;17.80;99.30;;;;;;4926898;29;19929;-69
2022/05/13 12:20:50;;;;;;;;;;;18.20;98.60;;;;;;4928424;29;20374;-70
2022/05/13 12:23:36;;;;;;;;;;;17.90;98.40;;;;;;4918258;29;19923;-70
2022/05/13 12:26:04;;;;;;;;;;;17.90;99.30;;;;;;4918774;29;19951;-70
2022/05/13 12:29:00;;;;;;;;;;;18.00;98.70;;;;;;4901495;29;20362;-70
2022/05/13 12:31:35;;;;;;;;;;;17.90;99.10;;;;;;4902462;29;19959;-70
2022/05/13 12:39:44;;;;;;;;;;;17.30;99.00;;;;;;4937484;29;20389;-71
2022/05/13 12:42:11;;;;;;;;;;;17.20;99.60;;;;;;4935756;29;19922;-70
2022/05/13 12:44:36;;;;;;;;;;;17.30;99.30;;;;;;4937614;29;19923;-70
2022/05/13 12:47:14;;;;;;;;;;;17.30;99.80;;;;;;4938063;29;20058;-70
2022/05/13 12:49:49;;;;;;;;;;;17.10;99.80;;;;;;4936929;29;19945;-70
2022/05/13 12:52:26;;;;;;;;;;;17.10;99.90;;;;;;4920632;29;19933;-70
2022/05/13 12:55:12;;;;;;;;;;;17.30;99.70;;;;;;4938240;29;19922;-69
2022/05/13 12:57:50;;;;;;;;;;;17.20;99.20;;;;;;4921091;29;19969;-69
2022/05/13 13:00:19;;;;;;;;;;;17.70;99.70;;;;;;4937757;29;19923;-69
2022/05/13 13:02:50;;;;;;;;;;;17.50;99.80;;;;;;4920923;29;19960;-70
2022/05/13 13:05:19;;;;;;;;;;;17.60;99.70;;;;;;4921246;29;19922;-70
2022/05/13 13:07:44;;;;;;;;;;;18.00;99.90;;;;;;4919954;29;20297;-70
2022/05/13 13:10:15;;;;;;;;;;;18.40;99.10;;;;;;4938735;29;20009;-70
2022/05/13 13:12:43;;;;;;;;;;;18.50;99.00;;;;;;4936903;29;19923;-70
2022/05/13 13:15:13;;;;;;;;;;;18.70;99.00;;;;;;4922065;29;19927;-70
2022/05/13 13:17:48;;;;;;;;;;;18.80;98.40;;;;;;4901008;29;19923;-71
2022/05/13 13:20:18;;;;;;;;;;;19.00;98.10;;;;;;4889942;29;20412;-72
2022/05/13 13:25:24;;;;;;;;;;;18.90;97.70;;;;;;4915822;29;19947;-70
2022/05/13 13:27:51;;;;;;;;;;;18.80;97.20;;;;;;4901625;29;20426;-70
2022/05/13 13:30:19;;;;;;;;;;;18.40;98.60;;;;;;4901671;29;19934;-70
2022/05/13 13:32:46;;;;;;;;;;;18.40;98.70;;;;;;4901706;29;19923;-70
2022/05/13 13:35:12;;;;;;;;;;;18.50;98.70;;;;;;4887580;29;19927;-70
2022/05/13 13:37:41;;;;;;;;;;;18.70;98.40;;;;;;4901400;29;20741;-70
2022/05/13 13:40:15;;;;;;;;;;;18.90;97.60;;;;;;4902297;29;20271;-71
2022/05/13 13:42:41;;;;;;;;;;;18.80;98.00;;;;;;4902096;29;19983;-70
2022/05/13 13:45:10;;;;;;;;;;;19.10;98.50;;;;;;4936848;29;20414;-70
2022/05/13 13:47:44;;;;;;;;;;;18.90;96.80;;;;;;4936072;29;19927;-69
2022/05/13 13:50:12;;;;;;;;;;;18.90;98.20;;;;;;4917877;29;20021;-71
2022/05/13 13:52:40;;;;;;;;;;;18.80;97.40;;;;;;4901594;29;19930;-72
2022/05/13 13:55:10;;;;;;;;;;;18.70;97.70;;;;;;4905766;29;20018;-73
2022/05/13 13:57:49;;;;;;;;;;;18.50;98.40;;;;;;4906065;29;19923;-73
2022/05/13 14:00:23;;;;;;;;;;;18.60;98.70;;;;;;4939775;29;19923;-75
2022/05/13 14:03:09;;;;;;;;;;;18.80;97.30;;;;;;4927189;29;19949;-73
2022/05/13 14:05:41;;;;;;;;;;;18.90;96.70;;;;;;4923052;29;19923;-76
2022/05/13 14:08:07;;;;;;;;;;;18.70;97.00;;;;;;4921838;29;19945;-73
2022/05/13 14:10:37;;;;;;;;;;;18.80;96.70;;;;;;4904334;29;19970;-70
2022/05/13 14:13:04;;;;;;;;;;;19.00;95.90;;;;;;4920822;29;20287;-71
2022/05/13 14:15:30;;;;;;;;;;;18.80;97.60;;;;;;4920642;29;19931;-71
2022/05/13 14:17:56;;;;;;;;;;;18.90;97.70;;;;;;4919628;29;19931;-73
2022/05/13 14:20:29;;;;;;;;;;;18.70;97.90;;;;;;4920405;29;19929;-71
2022/05/13 14:22:54;;;;;;;;;;;18.70;97.40;;;;;;4920016;29;19930;-71
2022/05/13 14:25:31;;;;;;;;;;;19.00;97.50;;;;;;4921067;29;20286;-73
2022/05/13 14:31:08;;;;;;;;;;;19.10;98.00;;;;;;4941387;29;19972;-72
2022/05/13 14:33:38;;;;;;;;;;;18.80;97.50;;;;;;4940991;29;19922;-71
2022/05/13 14:36:05;;;;;;;;;;;18.70;97.30;;;;;;4958362;29;19919;-73
2022/05/13 14:41:36;;;;;;;;;;;18.40;97.00;;;;;;4958673;29;19926;-72
2022/05/13 14:44:02;;;;;;;;;;;18.10;97.60;;;;;;4941228;29;19926;-70
2022/05/13 14:46:28;;;;;;;;;;;18.00;97.90;;;;;;4958928;29;19933;-70
2022/05/13 14:48:53;;;;;;;;;;;17.90;98.30;;;;;;4939247;29;19922;-70
2022/05/13 14:51:20;;;;;;;;;;;18.20;98.00;;;;;;4940620;29;20021;-70
2022/05/13 14:53:48;;;;;;;;;;;18.40;98.20;;;;;;4940436;29;20009;-69
2022/05/13 14:56:17;;;;;;;;;;;18.00;98.20;;;;;;4940404;29;19929;-71
2022/05/13 14:58:50;;;;;;;;;;;18.10;98.60;;;;;;4957304;29;19929;-70
2022/05/13 15:01:24;;;;;;;;;;;18.10;98.30;;;;;;4940222;29;19961;-71
2022/05/13 15:03:57;;;;;;;;;;;18.20;98.20;;;;;;4955943;28;20025;-71
2022/05/13 15:06:29;;;;;;;;;;;18.10;98.50;;;;;;4958529;29;19922;-71
2022/05/13 15:09:00;;;;;;;;;;;18.00;98.50;;;;;;4957654;29;20009;-73
2022/05/13 15:11:25;;;;;;;;;;;18.00;98.40;;;;;;4940300;29;19944;-73
2022/05/13 15:13:52;;;;;;;;;;;18.20;98.80;;;;;;4939868;29;20013;-73
2022/05/13 15:16:20;;;;;;;;;;;18.20;98.20;;;;;;4956896;29;19984;-73
2022/05/13 15:18:46;;;;;;;;;;;18.20;98.70;;;;;;4940335;29;20389;-73
2022/05/13 15:21:12;;;;;;;;;;;18.20;97.90;;;;;;4957370;29;19922;-73
2022/05/13 15:23:37;;;;;;;;;;;18.10;99.00;;;;;;4939919;29;20386;-73
2022/05/13 15:26:04;;;;;;;;;;;17.90;99.50;;;;;;4927663;29;19923;-73
2022/05/13 15:28:30;;;;;;;;;;;17.90;99.00;;;;;;4940133;29;19929;-73
2022/05/13 15:30:56;;;;;;;;;;;18.00;98.10;;;;;;4940312;29;19969;-75
2022/05/13 15:33:22;;;;;;;;;;;18.00;98.80;;;;;;4940729;29;19945;-74
2022/05/13 15:35:47;;;;;;;;;;;17.90;99.10;;;;;;4941514;29;19928;-72
2022/05/13 15:38:13;;;;;;;;;;;17.90;99.90;;;;;;4956499;29;20297;-72
2022/05/13 15:40:39;;;;;;;;;;;18.00;99.50;;;;;;4957122;29;19925;-73
2022/05/13 15:43:05;;;;;;;;;;;18.10;99.50;;;;;;4956583;29;19927;-73
2022/05/13 15:45:31;;;;;;;;;;;18.00;99.40;;;;;;4954367;29;19970;-72
2022/05/13 15:47:57;;;;;;;;;;;17.90;99.40;;;;;;4949585;29;19974;-73
2022/05/13 15:53:07;;;;;;;;;;;17.80;99.70;;;;;;4938832;29;19977;-73
2022/05/13 15:55:35;;;;;;;;;;;17.80;98.40;;;;;;4939705;29;19926;-72
2022/05/13 15:58:02;;;;;;;;;;;17.70;98.70;;;;;;4937187;29;19927;-74
2022/05/13 16:00:28;;;;;;;;;;;17.60;99.60;;;;;;4936185;29;19930;-70
2022/05/13 16:02:55;;;;;;;;;;;17.70;99.70;;;;;;4937847;29;19923;-71
2022/05/13 16:05:23;;;;;;;;;;;17.70;99.10;;;;;;4936893;29;19926;-71
2022/05/13 16:07:49;;;;;;;;;;;17.90;98.70;;;;;;4938180;29;20375;-71
2022/05/13 16:10:15;;;;;;;;;;;17.80;99.00;;;;;;4946824;29;19923;-71